Time;durP1;ratioP1;P1;durP2;ratioP2;P2;SDS_P1;SDS_P2;PMS_P1;PMS_P2;Temp;Humidity;BMP_temperature;BMP_pressure;BME280_temperature;BME280_humidity;BME280_pressure;Samples;Min_cycle;Max_cycle;Signal;HPM_P1;HPM_P2
2021/12/03 00:00:28;;;;;;;25.40;11.40;;;;;;;0.97;68.59;98992.05;87135;1311;22568;-71
2021/12/03 00:02:46;;;;;;;20.90;9.70;;;;;;;0.98;68.64;99000.79;87179;1311;26683;-71
2021/12/03 00:04:52;;;;;;;26.50;11.30;;;;;;;0.97;68.65;99006.32;87140;1311;22552;-71
2021/12/03 00:07:01;;;;;;;15.30;8.20;;;;;;;0.96;68.51;99012.67;87180;1311;25008;-71
2021/12/03 00:09:10;;;;;;;20.80;9.40;;;;;;;0.94;68.42;99014.11;87153;1311;22656;-71
2021/12/03 00:11:19;;;;;;;14.60;8.00;;;;;;;0.92;68.82;99016.20;87120;1311;22566;-71
2021/12/03 00:13:28;;;;;;;26.00;10.50;;;;;;;0.89;68.88;99015.08;87178;1311;22556;-72
2021/12/03 00:15:36;;;;;;;20.90;9.50;;;;;;;0.86;68.78;99014.77;87141;1311;22712;-72
2021/12/03 00:17:45;;;;;;;33.10;13.20;;;;;;;0.84;68.80;99014.83;86389;1312;1003509;-70
2021/12/03 00:19:57;;;;;;;31.30;10.50;;;;;;;0.80;68.86;99014.73;87082;1312;22565;-70
2021/12/03 00:22:09;;;;;;;17.60;8.00;;;;;;;0.79;69.05;99014.75;87044;1312;22650;-70
2021/12/03 00:24:22;;;;;;;16.20;8.00;;;;;;;0.78;68.85;99015.61;87090;1312;24336;-69
2021/12/03 00:26:30;;;;;;;11.20;6.10;;;;;;;0.80;69.01;99015.94;87059;1312;22700;-71
2021/12/03 00:28:42;;;;;;;13.00;5.20;;;;;;;0.81;69.15;99018.67;87052;1312;22563;-70
2021/12/03 00:30:53;;;;;;;15.20;6.80;;;;;;;0.82;69.30;99020.17;87076;1312;22583;-70
2021/12/03 00:33:01;;;;;;;11.00;5.70;;;;;;;0.84;69.08;99025.81;87067;1312;22580;-70
2021/12/03 00:35:14;;;;;;;12.70;6.70;;;;;;;0.86;69.35;99031.79;87074;1312;22561;-70
2021/12/03 00:37:23;;;;;;;13.40;6.80;;;;;;;0.83;68.97;99028.40;86346;1312;1003131;-73
2021/12/03 00:39:31;;;;;;;16.10;6.60;;;;;;;0.82;69.07;99030.48;87092;1311;22635;-72
2021/12/03 00:41:46;;;;;;;18.70;6.70;;;;;;;0.83;69.04;99029.95;87079;1312;22581;-74
2021/12/03 00:43:55;;;;;;;13.50;6.50;;;;;;;0.82;68.96;99034.26;87095;1312;22579;-72
2021/12/03 00:46:09;;;;;;;14.00;6.70;;;;;;;0.81;69.25;99042.35;87121;1312;22578;-72
2021/12/03 00:48:17;;;;;;;13.90;6.50;;;;;;;0.78;68.89;99055.46;87080;1312;25344;-72
2021/12/03 00:50:29;;;;;;;10.40;5.90;;;;;;;0.74;68.93;99056.57;87072;1312;23856;-72
2021/12/03 00:52:40;;;;;;;13.20;5.80;;;;;;;0.71;69.08;99061.93;87059;1312;24330;-70
2021/12/03 00:54:51;;;;;;;16.80;6.40;;;;;;;0.64;68.90;99069.11;87065;1311;22572;-70
2021/12/03 00:56:59;;;;;;;12.80;6.30;;;;;;;0.58;69.03;99072.33;87103;1312;23035;-71
2021/12/03 00:59:07;;;;;;;8.10;4.40;;;;;;;0.53;69.02;99073.09;87079;1312;23765;-71
2021/12/03 01:01:18;;;;;;;10.00;5.40;;;;;;;0.52;69.41;99076.02;87061;1312;25592;-70
2021/12/03 01:03:30;;;;;;;13.80;6.10;;;;;;;0.54;69.48;99080.44;87080;1312;22574;-70
2021/12/03 01:05:38;;;;;;;9.20;5.10;;;;;;;0.57;69.67;99082.27;87080;1312;22708;-72
2021/12/03 01:07:46;;;;;;;14.80;5.70;;;;;;;0.60;69.60;99080.01;87102;1312;22555;-69
2021/12/03 01:09:57;;;;;;;10.00;5.40;;;;;;;0.64;69.85;99073.56;86336;1312;1003145;-70
2021/12/03 01:12:10;;;;;;;12.00;5.50;;;;;;;0.66;69.77;99071.81;87044;1312;25183;-70
2021/12/03 01:14:18;;;;;;;11.30;5.30;;;;;;;0.67;69.63;99069.38;87070;1312;25337;-70
2021/12/03 01:16:29;;;;;;;7.00;4.30;;;;;;;0.67;69.72;99070.60;87113;1311;22935;-70
2021/12/03 01:18:38;;;;;;;9.40;5.60;;;;;;;0.66;69.63;99069.42;87193;1311;24311;-71
2021/12/03 01:20:46;;;;;;;10.80;5.10;;;;;;;0.65;69.49;99076.47;87167;1311;25587;-70
2021/12/03 01:22:58;;;;;;;8.00;4.60;;;;;;;0.63;69.34;99077.53;87167;1311;23954;-70
2021/12/03 01:25:07;;;;;;;9.80;5.40;;;;;;;0.61;69.52;99080.84;87180;1311;22562;-70
2021/12/03 01:27:15;;;;;;;8.70;4.60;;;;;;;0.58;69.37;99088.42;87172;1311;22578;-70
2021/12/03 01:29:23;;;;;;;12.00;5.00;;;;;;;0.57;69.60;99087.93;86442;1311;988319;-68
2021/12/03 01:31:31;;;;;;;7.80;4.20;;;;;;;0.58;69.66;99086.71;87152;1311;22557;-70
2021/12/03 01:33:39;;;;;;;7.30;4.20;;;;;;;0.62;69.62;99085.62;87147;1310;25563;-69
2021/12/03 01:35:48;;;;;;;9.20;4.40;;;;;;;0.66;69.77;99092.59;87173;1311;22559;-69
2021/12/03 01:37:56;;;;;;;8.40;4.60;;;;;;;0.70;69.65;99098.19;87156;1311;22578;-70
2021/12/03 01:40:05;;;;;;;8.70;4.70;;;;;;;0.72;69.76;99099.17;87156;1311;22871;-70
2021/12/03 01:42:16;;;;;;;7.40;4.50;;;;;;;0.74;69.74;99099.31;87167;1311;22565;-70
2021/12/03 01:44:24;;;;;;;7.30;4.60;;;;;;;0.77;69.55;99103.71;87151;1311;25367;-71
2021/12/03 01:46:32;;;;;;;8.80;4.80;;;;;;;0.78;69.61;99105.55;86443;1311;1003965;-71
2021/12/03 01:48:40;;;;;;;9.90;4.90;;;;;;;0.80;69.46;99113.61;87102;1311;24136;-70
2021/12/03 01:50:52;;;;;;;9.10;4.90;;;;;;;0.82;69.53;99116.16;87163;1311;22585;-71
2021/12/03 01:53:00;;;;;;;7.90;5.50;;;;;;;0.81;69.48;99117.88;87150;1310;22585;-71
2021/12/03 01:55:12;;;;;;;11.70;5.10;;;;;;;0.80;69.35;99120.30;87063;1313;24292;-70
2021/12/03 01:57:23;;;;;;;7.90;4.90;;;;;;;0.80;69.53;99125.98;87174;1311;24559;-69
2021/12/03 01:59:31;;;;;;;12.50;6.30;;;;;;;0.78;69.29;99125.14;87156;1311;22584;-69
2021/12/03 02:01:39;;;;;;;9.30;4.50;;;;;;;0.76;69.59;99122.26;87146;1310;22721;-69
2021/12/03 02:03:50;;;;;;;10.20;4.50;;;;;;;0.75;69.28;99121.09;87151;1311;22562;-69
2021/12/03 02:05:58;;;;;;;8.00;4.60;;;;;;;0.76;69.37;99124.30;87169;1311;26028;-69
2021/12/03 02:08:09;;;;;;;7.80;3.80;;;;;;;0.80;69.38;99125.80;87146;1312;22617;-72
2021/12/03 02:10:19;;;;;;;14.40;6.20;;;;;;;0.85;69.46;99130.52;87164;1311;22571;-70
2021/12/03 02:12:27;;;;;;;12.90;5.70;;;;;;;0.88;69.59;99135.27;87165;1311;22561;-70
2021/12/03 02:14:35;;;;;;;10.90;5.40;;;;;;;0.91;69.39;99135.55;87176;1311;22849;-71
2021/12/03 02:16:45;;;;;;;12.60;5.60;;;;;;;0.92;69.37;99137.94;87157;1310;25463;-70
2021/12/03 02:18:53;;;;;;;11.50;6.70;;;;;;;0.89;69.27;99134.91;87150;1311;22781;-72
2021/12/03 02:21:03;;;;;;;11.60;5.00;;;;;;;0.83;69.40;99137.59;87175;1311;22753;-71
2021/12/03 02:23:12;;;;;;;10.00;5.70;;;;;;;0.72;69.36;99135.73;87184;1311;22572;-70
2021/12/03 02:25:23;;;;;;;9.40;5.10;;;;;;;0.61;69.32;99138.15;87172;1311;22681;-70
2021/12/03 02:27:31;;;;;;;12.40;5.90;;;;;;;0.54;69.51;99146.69;87183;1311;22558;-69
2021/12/03 02:29:39;;;;;;;10.50;5.20;;;;;;;0.46;69.53;99153.33;87131;1311;23715;-70
2021/12/03 02:31:47;;;;;;;8.60;4.50;;;;;;;0.38;69.61;99155.86;87179;1311;22683;-70
2021/12/03 02:33:56;;;;;;;7.90;4.70;;;;;;;0.31;69.77;99165.09;87153;1311;25315;-70
2021/12/03 02:36:08;;;;;;;8.50;5.10;;;;;;;0.23;69.89;99172.41;87198;1311;22605;-70
2021/12/03 02:38:18;;;;;;;6.70;4.30;;;;;;;0.15;70.08;99173.21;87146;1311;22560;-70
2021/12/03 02:40:30;;;;;;;9.60;4.50;;;;;;;0.13;70.44;99176.48;87148;1311;24280;-70
2021/12/03 02:42:39;;;;;;;11.30;4.30;;;;;;;0.13;70.41;99175.48;87171;1311;22583;-70
2021/12/03 02:44:48;;;;;;;7.70;4.40;;;;;;;0.12;70.73;99180.63;87160;1310;22704;-70
2021/12/03 02:46:57;;;;;;;8.10;4.70;;;;;;;0.13;70.89;99185.08;87176;1311;22770;-72
2021/12/03 02:49:06;;;;;;;7.60;4.40;;;;;;;0.15;70.98;99191.56;87173;1311;22757;-70
2021/12/03 02:51:15;;;;;;;6.80;4.70;;;;;;;0.15;70.88;99192.08;87173;1311;22770;-70
2021/12/03 02:53:23;;;;;;;8.10;4.40;;;;;;;0.15;70.99;99193.79;87143;1312;22660;-69
2021/12/03 02:55:32;;;;;;;9.90;5.50;;;;;;;0.13;70.95;99199.47;87124;1311;22736;-70
2021/12/03 02:57:40;;;;;;;7.30;4.70;;;;;;;0.10;70.92;99201.58;86410;1311;1005485;-73
2021/12/03 02:59:49;;;;;;;9.20;6.20;;;;;;;0.06;70.99;99208.31;87146;1311;22588;-69
2021/12/03 03:01:57;;;;;;;10.70;5.20;;;;;;;0.01;71.06;99213.02;86403;1310;1003661;-70
2021/12/03 03:04:06;;;;;;;10.00;5.10;;;;;;;-0.05;71.43;99212.92;87160;1311;22552;-73
2021/12/03 03:06:15;;;;;;;6.90;4.60;;;;;;;-0.08;71.54;99217.08;87167;1311;22549;-70
2021/12/03 03:08:24;;;;;;;5.90;3.90;;;;;;;-0.11;71.40;99223.64;87147;1311;22683;-70
2021/12/03 03:10:39;;;;;;;8.10;4.30;;;;;;;-0.12;71.46;99223.14;87133;1311;22621;-73
2021/12/03 03:12:48;;;;;;;6.40;3.90;;;;;;;-0.11;71.81;99224.84;87160;1311;25488;-71
2021/12/03 03:14:59;;;;;;;7.80;5.10;;;;;;;-0.11;71.81;99227.93;87180;1311;22599;-71
2021/12/03 03:17:10;;;;;;;8.50;5.40;;;;;;;-0.14;72.06;99230.54;87164;1311;22548;-71
2021/12/03 03:19:20;;;;;;;9.80;5.10;;;;;;;-0.18;72.11;99236.41;87132;1312;22551;-70
2021/12/03 03:21:39;;;;;;;7.20;4.70;;;;;;;-0.20;72.38;99242.11;87153;1311;22556;-70
2021/12/03 03:23:48;;;;;;;9.50;4.70;;;;;;;-0.21;72.34;99244.52;87142;1312;22575;-71
2021/12/03 03:25:57;;;;;;;7.60;4.80;;;;;;;-0.20;72.41;99246.38;87155;1311;23731;-69
2021/12/03 03:28:05;;;;;;;9.20;5.00;;;;;;;-0.19;72.68;99245.35;87115;1311;22574;-70
2021/12/03 03:30:15;;;;;;;8.20;4.80;;;;;;;-0.19;72.82;99244.48;87137;1311;22660;-70
2021/12/03 03:32:27;;;;;;;10.20;4.00;;;;;;;-0.20;72.53;99248.09;87174;1311;25377;-70
2021/12/03 03:34:36;;;;;;;7.80;4.70;;;;;;;-0.18;72.56;99254.42;87146;1311;22574;-70
2021/12/03 03:36:49;;;;;;;6.30;4.00;;;;;;;-0.14;72.80;99258.48;87127;1311;22575;-71
2021/12/03 03:38:57;;;;;;;7.60;4.20;;;;;;;-0.11;72.98;99259.30;87146;1311;22685;-70
2021/12/03 03:41:08;;;;;;;6.40;4.30;;;;;;;-0.11;73.01;99263.41;87136;1312;22560;-70
2021/12/03 03:43:16;;;;;;;10.70;4.40;;;;;;;-0.14;72.85;99268.40;87138;1311;22552;-71
2021/12/03 03:45:26;;;;;;;9.70;4.90;;;;;;;-0.17;72.97;99272.58;87142;1311;22559;-71
2021/12/03 03:47:38;;;;;;;7.60;4.80;;;;;;;-0.22;72.92;99278.11;87177;1311;22871;-71
2021/12/03 03:49:50;;;;;;;6.10;4.80;;;;;;;-0.27;72.93;99280.92;86416;1311;1003485;-70
2021/12/03 03:51:58;;;;;;;6.70;4.80;;;;;;;-0.29;72.93;99286.94;87138;1311;22643;-70
2021/12/03 03:54:06;;;;;;;8.30;4.90;;;;;;;-0.32;73.17;99284.90;87145;1312;22581;-70
2021/12/03 03:56:15;;;;;;;8.40;5.10;;;;;;;-0.35;73.15;99284.09;87155;1311;22584;-70
2021/12/03 03:58:26;;;;;;;7.80;5.00;;;;;;;-0.39;73.18;99287.91;87135;1311;24376;-70
2021/12/03 04:00:38;;;;;;;8.10;4.50;;;;;;;-0.41;73.44;99289.64;87164;1310;22573;-70
2021/12/03 04:02:46;;;;;;;8.30;4.30;;;;;;;-0.43;73.62;99292.92;87181;1311;22579;-70
2021/12/03 04:04:58;;;;;;;6.10;4.60;;;;;;;-0.42;73.61;99288.63;87126;1311;25436;-70
2021/12/03 04:07:09;;;;;;;7.20;4.60;;;;;;;-0.39;73.81;99288.42;87146;1311;22673;-70
2021/12/03 04:09:18;;;;;;;7.00;4.60;;;;;;;-0.37;73.88;99288.39;87125;1312;22545;-71
2021/12/03 04:11:28;;;;;;;7.60;5.00;;;;;;;-0.36;73.80;99290.61;87153;1311;22558;-70
2021/12/03 04:13:39;;;;;;;9.10;5.00;;;;;;;-0.35;73.93;99288.54;86436;1311;1003567;-70
2021/12/03 04:15:48;;;;;;;7.60;5.10;;;;;;;-0.34;74.07;99289.91;87096;1312;22526;-71
2021/12/03 04:17:57;;;;;;;19.20;6.00;;;;;;;-0.34;74.05;99287.69;87144;1311;25663;-70
2021/12/03 04:20:05;;;;;;;7.30;4.50;;;;;;;-0.36;74.07;99289.75;87133;1311;22576;-71
2021/12/03 04:22:18;;;;;;;12.00;5.60;;;;;;;-0.39;74.02;99289.11;87155;1312;23774;-70
2021/12/03 04:24:29;;;;;;;19.80;6.40;;;;;;;-0.41;74.00;99292.90;87129;1311;24298;-70
2021/12/03 04:26:37;;;;;;;11.40;5.70;;;;;;;-0.42;73.89;99294.12;87174;1311;23784;-70
2021/12/03 04:28:45;;;;;;;8.40;4.70;;;;;;;-0.42;74.04;99297.19;87135;1312;22578;-69
2021/12/03 04:30:57;;;;;;;6.90;4.30;;;;;;;-0.41;74.20;99302.32;87149;1311;24302;-70
2021/12/03 04:33:08;;;;;;;6.90;4.90;;;;;;;-0.44;74.27;99304.23;87155;1311;22871;-71
2021/12/03 04:35:19;;;;;;;7.60;5.20;;;;;;;-0.44;74.36;99305.44;87134;1311;22552;-70
2021/12/03 04:37:31;;;;;;;6.60;4.80;;;;;;;-0.43;74.68;99312.97;87184;1311;22551;-71
2021/12/03 04:39:39;;;;;;;7.80;5.20;;;;;;;-0.42;74.76;99316.38;87128;1311;22581;-72
2021/12/03 04:42:09;;;;;;;7.30;4.90;;;;;;;-0.40;74.73;99318.77;87054;1311;24397;-70
2021/12/03 04:44:17;;;;;;;8.30;5.40;;;;;;;-0.39;74.86;99322.36;87143;1311;22576;-70
2021/12/03 04:46:25;;;;;;;6.60;5.20;;;;;;;-0.37;74.97;99328.33;87133;1311;22617;-71
2021/12/03 04:48:33;;;;;;;8.70;4.80;;;;;;;-0.33;74.65;99328.64;87114;1311;22569;-70
2021/12/03 04:50:44;;;;;;;7.30;4.80;;;;;;;-0.30;74.89;99330.12;87153;1311;22593;-70
2021/12/03 04:52:55;;;;;;;6.50;4.30;;;;;;;-0.24;75.05;99335.89;87137;1311;24417;-71
2021/12/03 04:55:04;;;;;;;7.20;4.60;;;;;;;-0.20;74.92;99335.33;87145;1311;22620;-72
2021/12/03 04:57:12;;;;;;;12.50;5.90;;;;;;;-0.17;74.59;99334.45;87145;1311;22806;-70
2021/12/03 04:59:20;;;;;;;17.80;7.10;;;;;;;-0.13;74.80;99335.95;87146;1311;25362;-70
2021/12/03 05:01:28;;;;;;;20.90;7.70;;;;;;;-0.10;74.72;99336.94;87150;1311;26481;-71
2021/12/03 05:03:37;;;;;;;19.00;8.20;;;;;;;-0.08;74.65;99339.48;87171;1311;22735;-70
2021/12/03 05:05:50;;;;;;;19.10;8.60;;;;;;;-0.10;74.56;99342.77;86377;1311;1003329;-70
2021/12/03 05:07:59;;;;;;;13.10;7.50;;;;;;;-0.12;74.71;99345.88;87118;1311;22869;-70
2021/12/03 05:10:12;;;;;;;13.90;6.50;;;;;;;-0.13;74.74;99352.73;87160;1312;24363;-71
2021/12/03 05:12:23;;;;;;;10.60;7.10;;;;;;;-0.14;74.73;99351.55;87126;1312;23829;-70
2021/12/03 05:14:32;;;;;;;9.80;6.00;;;;;;;-0.14;74.75;99352.92;87137;1311;22884;-70
2021/12/03 05:16:44;;;;;;;10.40;6.50;;;;;;;-0.11;74.94;99357.51;87179;1311;22813;-71
2021/12/03 05:18:53;;;;;;;13.80;6.50;;;;;;;-0.06;75.00;99363.80;87124;1311;24826;-70
2021/12/03 05:21:03;;;;;;;12.10;7.50;;;;;;;0.01;74.99;99359.95;87159;1311;22589;-71
2021/12/03 05:23:14;;;;;;;10.10;6.20;;;;;;;0.06;75.02;99363.67;87134;1311;23986;-72
2021/12/03 05:25:26;;;;;;;12.00;6.80;;;;;;;0.09;74.83;99363.12;87127;1310;24295;-72
2021/12/03 05:27:34;;;;;;;12.10;6.50;;;;;;;0.10;74.97;99364.30;87148;1311;23698;-71
2021/12/03 05:29:43;;;;;;;8.70;6.00;;;;;;;0.12;74.83;99370.63;87126;1312;22624;-71
2021/12/03 05:31:51;;;;;;;11.00;6.40;;;;;;;0.07;74.73;99374.28;87179;1312;22691;-70
2021/12/03 05:34:02;;;;;;;12.20;5.60;;;;;;;0.01;74.74;99378.98;87120;1312;26698;-70
2021/12/03 05:36:10;;;;;;;12.40;6.70;;;;;;;-0.05;74.63;99381.96;87139;1311;22601;-73
2021/12/03 05:38:19;;;;;;;9.00;5.90;;;;;;;-0.08;74.69;99384.41;86284;1313;1003278;-72
2021/12/03 05:40:27;;;;;;;7.50;5.40;;;;;;;-0.11;74.86;99390.95;87138;1311;22543;-72
2021/12/03 05:42:39;;;;;;;6.60;5.30;;;;;;;-0.14;74.79;99393.55;87176;1312;23874;-72
2021/12/03 05:44:47;;;;;;;6.00;4.70;;;;;;;-0.15;74.77;99396.30;87136;1311;22755;-72
2021/12/03 05:46:59;;;;;;;8.50;6.20;;;;;;;-0.12;74.81;99401.25;87156;1311;22552;-70
2021/12/03 05:49:07;;;;;;;17.00;5.90;;;;;;;-0.09;74.70;99402.42;87143;1311;22786;-72
2021/12/03 05:51:15;;;;;;;7.60;5.60;;;;;;;-0.08;74.43;99404.97;87160;1312;22671;-71
2021/12/03 05:53:24;;;;;;;6.60;5.50;;;;;;;-0.10;74.49;99406.88;87136;1311;22565;-71
2021/12/03 05:55:36;;;;;;;6.00;5.40;;;;;;;-0.10;74.17;99412.89;87124;1311;22773;-72
2021/12/03 05:57:44;;;;;;;6.60;5.20;;;;;;;-0.13;74.10;99409.82;87140;1311;25353;-71
2021/12/03 05:59:53;;;;;;;8.10;6.00;;;;;;;-0.14;73.78;99408.98;87146;1311;22763;-72
2021/12/03 06:02:01;;;;;;;6.40;5.30;;;;;;;-0.16;73.58;99406.09;87124;1312;22591;-72
2021/12/03 06:04:09;;;;;;;7.30;5.50;;;;;;;-0.19;73.79;99404.23;87144;1312;22569;-72
2021/12/03 06:06:21;;;;;;;6.40;5.70;;;;;;;-0.22;73.55;99403.23;87147;1311;26465;-71
2021/12/03 06:08:30;;;;;;;6.30;5.10;;;;;;;-0.29;73.27;99403.80;87154;1311;22559;-70
2021/12/03 06:10:38;;;;;;;6.40;4.50;;;;;;;-0.33;73.26;99410.36;87142;1312;22572;-70
2021/12/03 06:12:50;;;;;;;5.70;5.00;;;;;;;-0.38;73.04;99405.95;87183;1311;22640;-71
2021/12/03 06:14:58;;;;;;;5.70;4.00;;;;;;;-0.42;73.34;99410.96;87115;1312;24296;-71
2021/12/03 06:17:12;;;;;;;5.10;3.80;;;;;;;-0.46;73.09;99410.83;87180;1311;23763;-71
2021/12/03 06:19:20;;;;;;;5.10;4.40;;;;;;;-0.51;73.19;99409.67;87133;1311;22741;-71
2021/12/03 06:21:28;;;;;;;5.20;4.30;;;;;;;-0.57;72.92;99409.89;87175;1311;24999;-70
2021/12/03 06:23:37;;;;;;;7.10;4.50;;;;;;;-0.65;73.23;99409.77;87141;1311;24003;-70
2021/12/03 06:25:46;;;;;;;5.30;3.70;;;;;;;-0.73;73.03;99416.53;87123;1312;22577;-70
2021/12/03 06:27:57;;;;;;;4.20;3.70;;;;;;;-0.83;73.19;99420.02;87160;1311;25324;-71
2021/12/03 06:30:12;;;;;;;4.60;4.00;;;;;;;-0.92;73.43;99430.53;87154;1312;26867;-71
2021/12/03 06:32:20;;;;;;;4.90;4.00;;;;;;;-1.02;73.54;99425.96;87158;1311;22697;-71
2021/12/03 06:34:31;;;;;;;5.20;4.10;;;;;;;-1.11;73.60;99424.32;87120;1311;24282;-70
2021/12/03 06:36:43;;;;;;;5.70;4.40;;;;;;;-1.19;73.55;99427.61;87137;1311;22746;-70
2021/12/03 06:38:54;;;;;;;5.00;4.10;;;;;;;-1.27;73.83;99429.37;87097;1312;22743;-71
2021/12/03 06:41:02;;;;;;;4.60;3.70;;;;;;;-1.32;73.49;99436.75;87150;1311;23948;-71
2021/12/03 06:43:11;;;;;;;4.40;3.60;;;;;;;-1.36;73.50;99447.04;87124;1311;25443;-71
2021/12/03 06:45:19;;;;;;;6.80;3.30;;;;;;;-1.39;73.64;99458.34;87150;1312;22700;-71
2021/12/03 06:47:28;;;;;;;3.70;3.30;;;;;;;-1.42;73.96;99462.81;87149;1311;22606;-71
2021/12/03 06:49:39;;;;;;;4.20;3.50;;;;;;;-1.42;74.00;99468.45;87136;1311;24276;-70
2021/12/03 06:51:51;;;;;;;6.90;4.30;;;;;;;-1.40;74.37;99472.89;87173;1312;22789;-72
2021/12/03 06:54:04;;;;;;;5.60;4.80;;;;;;;-1.35;74.47;99474.58;87105;1312;26026;-72
2021/12/03 06:56:21;;;;;;;5.50;3.80;;;;;;;-1.31;74.35;99477.47;87139;1311;24468;-71
2021/12/03 06:58:29;;;;;;;5.50;4.30;;;;;;;-1.27;74.47;99484.14;86413;1311;1002992;-71
2021/12/03 07:00:38;;;;;;;4.60;4.20;;;;;;;-1.22;74.40;99493.34;86430;1311;1003612;-70
2021/12/03 07:02:47;;;;;;;5.80;4.20;;;;;;;-1.17;74.62;99492.30;87184;1311;22684;-72
2021/12/03 07:04:55;;;;;;;11.40;5.90;;;;;;;-1.12;74.61;99499.63;87113;1311;22890;-72
2021/12/03 07:07:07;;;;;;;5.60;5.00;;;;;;;-1.05;74.50;99504.04;87113;1311;22576;-71
2021/12/03 07:09:17;;;;;;;5.00;3.90;;;;;;;-0.97;74.42;99500.75;87143;1311;25322;-71
2021/12/03 07:11:26;;;;;;;5.00;4.50;;;;;;;-0.89;74.53;99500.88;87142;1311;22757;-72
2021/12/03 07:13:37;;;;;;;5.40;4.90;;;;;;;-0.80;74.50;99503.73;87115;1311;22634;-71
2021/12/03 07:15:46;;;;;;;8.60;4.40;;;;;;;-0.70;74.21;99505.55;87149;1312;22566;-71
2021/12/03 07:17:58;;;;;;;5.70;4.30;;;;;;;-0.62;74.32;99510.98;87132;1312;22591;-71
2021/12/03 07:20:09;;;;;;;6.50;4.20;;;;;;;-0.53;74.04;99511.61;87155;1311;22591;-71
2021/12/03 07:22:17;;;;;;;6.10;5.20;;;;;;;-0.46;74.11;99515.84;87140;1312;22758;-70
2021/12/03 07:24:26;;;;;;;7.80;5.80;;;;;;;-0.43;74.04;99515.66;87144;1311;22611;-70
2021/12/03 07:26:37;;;;;;;6.10;5.40;;;;;;;-0.38;73.74;99518.20;87166;1311;22569;-71
2021/12/03 07:28:49;;;;;;;6.60;5.90;;;;;;;-0.34;73.90;99520.56;87088;1312;25335;-70
2021/12/03 07:30:57;;;;;;;6.60;5.90;;;;;;;-0.33;73.88;99523.80;87139;1312;22694;-70
2021/12/03 07:33:07;;;;;;;6.20;5.50;;;;;;;-0.30;73.48;99528.73;87133;1311;22542;-70
2021/12/03 07:35:16;;;;;;;5.70;4.70;;;;;;;-0.25;73.55;99522.03;86414;1312;1003649;-70
2021/12/03 07:37:28;;;;;;;6.10;4.70;;;;;;;-0.21;73.14;99523.88;87158;1311;22573;-71
2021/12/03 07:39:36;;;;;;;4.70;4.00;;;;;;;-0.16;73.37;99526.58;87119;1312;22579;-71
2021/12/03 07:41:48;;;;;;;4.60;4.20;;;;;;;-0.10;73.05;99528.77;87143;1311;23000;-70
2021/12/03 07:43:56;;;;;;;4.80;4.20;;;;;;;-0.03;73.10;99533.34;87133;1311;22574;-71
2021/12/03 07:46:05;;;;;;;5.30;4.80;;;;;;;0.06;73.02;99534.80;87099;1312;24383;-71
2021/12/03 07:48:16;;;;;;;5.20;4.60;;;;;;;0.15;72.75;99535.41;87134;1311;22564;-71
2021/12/03 07:50:25;;;;;;;5.70;4.60;;;;;;;0.20;72.62;99533.82;87145;1312;22767;-71
2021/12/03 07:52:35;;;;;;;7.40;4.50;;;;;;;0.24;72.36;99539.60;87167;1311;23860;-72
2021/12/03 07:54:46;;;;;;;5.30;4.70;;;;;;;0.27;72.01;99541.30;87152;1311;25485;-72
2021/12/03 07:56:57;;;;;;;4.90;4.40;;;;;;;0.28;72.12;99540.26;87181;1311;22729;-72
2021/12/03 07:59:06;;;;;;;7.20;4.80;;;;;;;0.28;71.88;99540.95;86398;1311;1003349;-72
2021/12/03 08:01:15;;;;;;;5.50;3.90;;;;;;;0.29;71.65;99541.27;87124;1311;22565;-72
2021/12/03 08:03:24;;;;;;;4.50;3.80;;;;;;;0.28;71.29;99542.14;87121;1311;22563;-72
2021/12/03 08:05:34;;;;;;;5.50;4.60;;;;;;;0.26;71.34;99543.88;87124;1312;22559;-71
2021/12/03 08:07:46;;;;;;;4.70;4.20;;;;;;;0.30;71.24;99546.25;87139;1311;25473;-72
2021/12/03 08:09:54;;;;;;;5.70;4.20;;;;;;;0.37;71.40;99539.30;87143;1312;22570;-72
2021/12/03 08:12:02;;;;;;;4.90;4.40;;;;;;;0.45;71.28;99535.45;87164;1311;23789;-72
2021/12/03 08:14:14;;;;;;;5.40;3.80;;;;;;;0.54;71.25;99541.70;87155;1311;22576;-72
2021/12/03 08:16:25;;;;;;;6.00;3.80;;;;;;;0.62;70.72;99536.31;87159;1311;23838;-71
2021/12/03 08:18:34;;;;;;;6.50;3.30;;;;;;;0.65;70.75;99541.77;87135;1311;22795;-72
2021/12/03 08:20:43;;;;;;;4.90;3.30;;;;;;;0.69;70.67;99537.58;87128;1311;22559;-72
2021/12/03 08:22:54;;;;;;;7.60;3.80;;;;;;;0.72;70.47;99535.84;87161;1312;22738;-70
2021/12/03 08:25:06;;;;;;;8.10;4.60;;;;;;;0.83;70.58;99534.00;87128;1311;22574;-70
2021/12/03 08:27:15;;;;;;;6.80;3.60;;;;;;;0.93;70.28;99533.88;87188;1311;22808;-70
2021/12/03 08:29:23;;;;;;;7.10;3.60;;;;;;;1.08;70.12;99535.40;87154;1311;22651;-71
2021/12/03 08:31:31;;;;;;;8.00;4.20;;;;;;;1.23;69.70;99528.67;87159;1312;22754;-71
2021/12/03 08:33:39;;;;;;;5.50;3.70;;;;;;;1.34;69.29;99531.29;87137;1311;22785;-71
2021/12/03 08:35:48;;;;;;;5.30;3.50;;;;;;;1.49;69.31;99532.95;87181;1311;22545;-71
2021/12/03 08:37:57;;;;;;;5.50;3.70;;;;;;;1.63;69.08;99535.15;87165;1311;22663;-71
2021/12/03 08:40:08;;;;;;;4.30;3.50;;;;;;;1.77;69.09;99538.88;87140;1311;22810;-70
2021/12/03 08:42:19;;;;;;;6.10;3.60;;;;;;;1.92;68.39;99536.94;87176;1311;22568;-71
2021/12/03 08:44:28;;;;;;;6.90;3.60;;;;;;;1.98;68.13;99534.77;87161;1311;23851;-70
2021/12/03 08:46:37;;;;;;;5.60;3.80;;;;;;;2.00;67.95;99537.14;87137;1311;22593;-71
2021/12/03 08:48:48;;;;;;;5.60;3.90;;;;;;;2.00;67.34;99536.45;87178;1311;23894;-71
2021/12/03 08:51:10;;;;;;;7.30;4.40;;;;;;;2.11;67.46;99528.02;87114;1311;23481;-72
2021/12/03 08:55:56;;;;;;;7.40;4.30;;;;;;;2.50;66.34;99526.63;86956;1315;24290;-71
2021/12/03 08:58:04;;;;;;;4.20;3.80;;;;;;;2.69;66.32;99529.01;86887;1315;22582;-69
2021/12/03 09:00:19;;;;;;;6.20;4.00;;;;;;;2.94;65.91;99529.73;87103;1311;23799;-71
2021/12/03 09:02:31;;;;;;;9.00;4.10;;;;;;;3.17;64.71;99530.44;87165;1311;24031;-72
2021/12/03 09:04:39;;;;;;;4.40;3.50;;;;;;;3.38;64.38;99525.52;87155;1311;25354;-72
2021/12/03 09:06:47;;;;;;;5.40;3.60;;;;;;;3.53;64.17;99531.73;87122;1311;22555;-72
2021/12/03 09:08:58;;;;;;;6.20;3.40;;;;;;;3.70;63.18;99533.56;87161;1311;22586;-71
2021/12/03 09:11:06;;;;;;;6.70;3.20;;;;;;;3.80;62.65;99529.71;87148;1312;26108;-71
2021/12/03 09:13:18;;;;;;;4.60;3.10;;;;;;;3.86;62.92;99526.79;87128;1311;26709;-72
2021/12/03 09:15:34;;;;;;;8.90;4.20;;;;;;;4.14;62.69;99524.73;87128;1311;22575;-71
2021/12/03 09:17:57;;;;;;;5.00;3.10;;;;;;;4.53;62.53;99519.91;87165;1311;22550;-71
2021/12/03 09:20:14;;;;;;;5.60;3.30;;;;;;;4.91;61.66;99510.02;87104;1312;22618;-71
2021/12/03 09:22:32;;;;;;;7.20;3.60;;;;;;;5.27;60.35;99513.83;87132;1311;22564;-71
2021/12/03 09:24:39;;;;;;;7.20;3.30;;;;;;;5.62;60.23;99512.05;87126;1311;23841;-71
2021/12/03 09:26:46;;;;;;;6.10;3.50;;;;;;;5.88;59.03;99508.96;87152;1311;22774;-70
2021/12/03 09:28:59;;;;;;;6.70;3.00;;;;;;;6.13;58.68;99512.16;87130;1312;22895;-71
2021/12/03 09:31:06;;;;;;;4.70;3.60;;;;;;;6.38;57.34;99507.66;86963;1311;267332;-70
2021/12/03 09:33:16;;;;;;;3.90;3.30;;;;;;;6.60;56.80;99506.02;87149;1312;24293;-70
2021/12/03 09:35:24;;;;;;;10.60;3.20;;;;;;;6.79;56.51;99503.97;87135;1311;22553;-71
2021/12/03 09:37:31;;;;;;;8.90;3.70;;;;;;;6.89;56.38;99501.50;87117;1311;22571;-71
2021/12/03 09:39:43;;;;;;;8.80;3.30;;;;;;;7.07;56.37;99503.09;87140;1311;22699;-72
2021/12/03 09:41:50;;;;;;;4.20;2.90;;;;;;;7.10;55.93;99501.75;87144;1311;22555;-72
2021/12/03 09:44:00;;;;;;;5.80;3.20;;;;;;;7.14;55.00;99497.79;87126;1311;25040;-71
2021/12/03 09:46:16;;;;;;;6.00;3.30;;;;;;;7.23;53.73;99494.86;87163;1311;23830;-70
2021/12/03 09:48:33;;;;;;;4.40;3.10;;;;;;;7.18;53.96;99489.99;87136;1311;22555;-72
2021/12/03 09:50:43;;;;;;;5.10;2.90;;;;;;;7.10;54.01;99496.20;87133;1311;26507;-71
2021/12/03 09:53:05;;;;;;;3.80;3.10;;;;;;;7.20;54.59;99496.34;87123;1311;22618;-72
2021/12/03 09:55:13;;;;;;;3.70;2.50;;;;;;;7.20;53.46;99490.11;87132;1311;23845;-72
2021/12/03 09:57:33;;;;;;;4.60;3.30;;;;;;;7.08;53.63;99481.55;87165;1311;22818;-71
2021/12/03 10:05:01;;;;;;;6.60;3.10;;;;;;;7.55;53.40;99464.79;86878;1315;22675;-71
2021/12/03 10:12:27;;;;;;;7.00;3.10;;;;;;;6.63;52.29;99471.08;86766;1317;22593;-70
2021/12/03 10:14:38;;;;;;;5.90;3.50;;;;;;;6.11;52.47;99471.34;86772;1317;22693;-71
2021/12/03 10:17:16;;;;;;;6.10;4.30;;;;;;;5.82;53.87;99474.55;86828;1313;22558;-71
2021/12/03 10:19:31;;;;;;;5.90;3.20;;;;;;;5.55;53.71;99471.96;87134;1312;22584;-71
2021/12/03 10:24:40;;;;;;;7.60;3.20;;;;;;;4.86;54.51;99463.18;86692;1318;22601;-73
2021/12/03 10:29:46;;;;;;;4.80;3.30;;;;;;;4.21;55.67;99469.65;86773;1317;22565;-74
2021/12/03 10:34:32;;;;;;;4.60;3.60;;;;;;;3.81;56.60;99464.84;86823;1312;22552;-70